Time;durP1;ratioP1;P1;durP2;ratioP2;P2;SDS_P1;SDS_P2;PMS_P1;PMS_P2;Temp;Humidity;BMP_temperature;BMP_pressure;BME280_temperature;BME280_humidity;BME280_pressure;Samples;Min_cycle;Max_cycle;Signal;HPM_P1;HPM_P2
2022/06/29 00:01:36;;;;;;;;;2.00;2.00;;;;;19.94;54.74;101663.25;5029810;28;8830;-66
2022/06/29 00:04:02;;;;;;;;;2.50;1.75;;;;;19.90;54.90;101654.69;5037304;28;8896;-66
2022/06/29 00:06:29;;;;;;;;;1.25;1.25;;;;;19.88;55.09;101656.81;5025887;28;8837;-66
2022/06/29 00:08:55;;;;;;;;;3.75;2.50;;;;;19.86;55.02;101653.50;5029841;28;8830;-66
2022/06/29 00:11:21;;;;;;;;;2.75;2.00;;;;;19.82;55.39;101652.31;5026243;28;8833;-66
2022/06/29 00:13:48;;;;;;;;;1.00;1.00;;;;;19.81;55.47;101647.06;5029554;28;8836;-67
2022/06/29 00:16:14;;;;;;;;;1.00;1.00;;;;;19.76;55.70;101640.41;5031013;28;8843;-67
2022/06/29 00:18:41;;;;;;;;;1.00;1.00;;;;;19.73;56.00;101638.16;5042336;28;8844;-66
2022/06/29 00:21:07;;;;;;;;;1.00;1.00;;;;;19.70;56.09;101641.38;5029107;28;8826;-65
2022/06/29 00:23:34;;;;;;;;;1.00;1.00;;;;;19.67;56.22;101641.81;5023818;28;8903;-66
2022/06/29 00:26:00;;;;;;;;;1.00;1.00;;;;;19.66;56.39;101640.16;5012099;28;8830;-66
2022/06/29 00:28:27;;;;;;;;;2.00;2.00;;;;;19.64;56.41;101636.81;5012893;28;8888;-66
2022/06/29 00:30:54;;;;;;;;;1.75;1.75;;;;;19.61;56.66;101645.50;5033149;28;8876;-66
2022/06/29 00:33:20;;;;;;;;;1.00;1.00;;;;;19.59;56.85;101639.41;5030652;28;8838;-66
2022/06/29 00:35:47;;;;;;;;;1.25;1.25;;;;;19.58;56.91;101640.47;5027408;28;8842;-66
2022/06/29 00:38:14;;;;;;;;;2.00;2.00;;;;;19.55;56.85;101632.75;5038443;28;8841;-66
2022/06/29 00:40:40;;;;;;;;;2.00;2.00;;;;;19.55;57.01;101629.19;5029669;28;8827;-65
2022/06/29 00:43:07;;;;;;;;;1.50;1.50;;;;;19.53;57.29;101632.16;5040980;28;8828;-66
2022/06/29 00:45:33;;;;;;;;;3.00;2.75;;;;;19.50;57.17;101632.63;5023076;28;8821;-67
2022/06/29 00:48:00;;;;;;;;;4.00;2.00;;;;;19.49;57.28;101620.06;5039592;28;8947;-66
2022/06/29 00:50:30;;;;;;;;;1.75;1.75;;;;;19.50;57.37;101627.16;5021544;28;8818;-68
2022/06/29 00:53:01;;;;;;;;;3.00;2.00;;;;;19.48;57.32;101621.09;5020402;28;8810;-67
2022/06/29 00:55:31;;;;;;;;;3.00;2.50;;;;;19.48;57.15;101623.81;5027701;28;8840;-65
2022/06/29 00:58:03;;;;;;;;;3.00;1.75;;;;;19.44;57.14;101614.44;5026544;28;8849;-67
2022/06/29 01:00:30;;;;;;;;;1.75;1.75;;;;;19.39;56.92;101615.16;5021272;28;8843;-65
2022/06/29 01:03:00;;;;;;;;;2.50;2.50;;;;;19.34;56.71;101611.47;5012278;28;8828;-68
2022/06/29 01:05:31;;;;;;;;;3.25;3.00;;;;;19.32;56.42;101608.13;5032261;28;8825;-68
2022/06/29 01:07:58;;;;;;;;;2.25;2.00;;;;;19.30;56.36;101604.81;5027435;28;8827;-68
2022/06/29 01:10:25;;;;;;;;;2.25;2.25;;;;;19.27;56.23;101606.09;5021748;28;8834;-65
2022/06/29 01:12:52;;;;;;;;;2.00;2.00;;;;;19.26;56.01;101598.97;5035333;28;8826;-67
2022/06/29 01:15:19;;;;;;;;;2.00;2.00;;;;;19.26;56.00;101597.06;5026245;28;8822;-67
2022/06/29 01:17:46;;;;;;;;;1.00;1.00;;;;;19.24;55.79;101603.81;5030266;28;8872;-65
2022/06/29 01:20:13;;;;;;;;;3.00;2.00;;;;;19.25;55.83;101597.31;5024648;28;8911;-68
2022/06/29 01:22:40;;;;;;;;;1.50;1.50;;;;;19.21;55.50;101598.84;5019545;28;9504;-68
2022/06/29 01:25:08;;;;;;;;;1.75;1.75;;;;;19.19;55.37;101596.34;5024505;28;8940;-67
2022/06/29 01:27:35;;;;;;;;;2.00;2.00;;;;;19.14;55.28;101593.47;5023101;28;8823;-67
2022/06/29 01:30:02;;;;;;;;;2.25;2.25;;;;;19.11;55.04;101596.66;5013748;28;8853;-65
2022/06/29 01:32:28;;;;;;;;;2.25;1.50;;;;;19.04;55.16;101587.78;5016394;28;8822;-67
2022/06/29 01:34:55;;;;;;;;;2.25;2.25;;;;;19.00;55.22;101592.84;5022808;28;8898;-67
2022/06/29 01:37:21;;;;;;;;;2.00;2.00;;;;;18.97;55.20;101589.75;5044511;28;8841;-67
2022/06/29 01:39:48;;;;;;;;;2.50;1.00;;;;;18.96;55.03;101597.13;5021814;28;8834;-66
2022/06/29 01:42:14;;;;;;;;;2.00;2.00;;;;;18.98;54.97;101602.31;5043975;28;8894;-67
2022/06/29 01:44:41;;;;;;;;;2.00;2.00;;;;;18.95;54.84;101598.16;5024664;28;8846;-67
2022/06/29 01:47:07;;;;;;;;;2.00;2.00;;;;;18.96;54.81;101588.94;5043912;28;8830;-67
2022/06/29 01:49:34;;;;;;;;;2.50;2.50;;;;;18.94;54.79;101585.59;5029977;28;8826;-67
2022/06/29 01:52:00;;;;;;;;;2.00;2.00;;;;;18.93;54.51;101591.28;5028129;28;8829;-66
2022/06/29 01:54:27;;;;;;;;;3.50;3.00;;;;;18.91;54.56;101591.50;5034320;28;8834;-66
2022/06/29 01:56:53;;;;;;;;;3.00;3.00;;;;;18.91;54.62;101594.22;5024028;28;8916;-66
2022/06/29 01:59:20;;;;;;;;;2.00;2.00;;;;;18.90;54.34;101587.09;5019444;28;8846;-66
2022/06/29 02:01:48;;;;;;;;;2.00;2.00;;;;;18.89;54.37;101585.44;5024842;28;8830;-66
2022/06/29 02:04:15;;;;;;;;;2.75;2.75;;;;;18.84;54.54;101581.75;5042934;28;8810;-66
2022/06/29 02:06:42;;;;;;;;;4.25;1.50;;;;;18.80;54.53;101581.41;5034040;28;8826;-67
2022/06/29 02:09:08;;;;;;;;;4.00;3.00;;;;;18.81;54.62;101584.94;5020534;28;8837;-66
2022/06/29 02:11:35;;;;;;;;;3.75;3.75;;;;;18.83;54.41;101580.09;5024473;28;8834;-67
2022/06/29 02:14:01;;;;;;;;;3.00;3.00;;;;;18.84;54.84;101573.56;5028942;28;9564;-66
2022/06/29 02:16:28;;;;;;;;;2.00;2.00;;;;;18.85;54.42;101569.78;5016195;28;9525;-67
2022/06/29 02:18:56;;;;;;;;;4.00;2.75;;;;;18.84;54.03;101573.56;5019723;28;9508;-66
2022/06/29 02:21:23;;;;;;;;;3.00;3.00;;;;;18.78;54.26;101569.88;5035554;28;8850;-66
2022/06/29 02:23:50;;;;;;;;;2.75;2.75;;;;;18.75;54.23;101568.41;5021734;28;8838;-67
2022/06/29 02:26:16;;;;;;;;;2.75;2.25;;;;;18.74;54.15;101568.66;5020036;28;8812;-67
2022/06/29 02:28:43;;;;;;;;;2.00;2.00;;;;;18.75;54.14;101564.88;5018221;28;8814;-67
2022/06/29 02:34:55;;;;;;;;;2.75;2.00;;;;;18.73;54.23;101561.56;5026322;28;8830;-67
2022/06/29 02:36:50;;;;;;;;;2.00;2.00;;;;;18.70;54.17;101560.09;5032129;28;9531;-67
2022/06/29 02:39:17;;;;;;;;;3.75;3.75;;;;;18.71;54.26;101558.22;5045785;28;8836;-67
2022/06/29 02:41:43;;;;;;;;;3.00;3.00;;;;;18.71;54.40;101553.59;5029895;28;8854;-67
2022/06/29 02:44:10;;;;;;;;;2.00;2.00;;;;;18.69;54.46;101546.69;5024196;28;8916;-67
2022/06/29 02:46:36;;;;;;;;;2.00;2.00;;;;;18.69;54.45;101544.78;5024438;28;8830;-67
2022/06/29 02:49:02;;;;;;;;;1.00;1.00;;;;;18.69;54.50;101535.78;5029259;28;8876;-66
2022/06/29 02:51:29;;;;;;;;;2.00;2.00;;;;;18.64;54.41;101539.19;5015870;28;8832;-66
2022/06/29 02:53:56;;;;;;;;;2.00;2.00;;;;;18.62;54.69;101543.19;5018164;28;8847;-67
2022/06/29 02:56:22;;;;;;;;;3.50;3.50;;;;;18.61;54.81;101536.09;5022710;28;8884;-66
2022/06/29 02:58:49;;;;;;;;;2.25;2.25;;;;;18.61;54.53;101542.38;5033344;28;8825;-66
2022/06/29 03:01:15;;;;;;;;;2.00;2.00;;;;;18.62;54.83;101543.19;5029067;28;8846;-66
2022/06/29 03:03:42;;;;;;;;;3.25;3.25;;;;;18.60;54.85;101534.44;5033594;28;8842;-66
2022/06/29 03:06:08;;;;;;;;;2.00;2.00;;;;;18.57;54.79;101530.25;5015680;28;8832;-66
2022/06/29 03:08:35;;;;;;;;;3.00;3.00;;;;;18.57;54.69;101529.44;5013385;28;8809;-66
2022/06/29 03:11:02;;;;;;;;;3.00;3.00;;;;;18.53;54.61;101529.06;5019059;28;8803;-66
2022/06/29 03:13:28;;;;;;;;;3.00;2.75;;;;;18.49;54.56;101530.59;5045809;28;8808;-66
2022/06/29 03:15:55;;;;;;;;;2.75;2.75;;;;;18.48;54.75;101531.66;5034668;28;8912;-66
2022/06/29 03:18:21;;;;;;;;;2.50;2.50;;;;;18.44;54.77;101525.81;5032186;28;8816;-66
2022/06/29 03:20:48;;;;;;;;;3.25;3.25;;;;;18.44;55.27;101525.00;5029600;28;8844;-66
2022/06/29 03:23:14;;;;;;;;;3.75;3.75;;;;;18.43;55.19;101512.41;5031393;28;8880;-66
2022/06/29 03:25:41;;;;;;;;;3.00;3.00;;;;;18.42;55.08;101510.75;5027923;28;8836;-66
2022/06/29 03:28:07;;;;;;;;;4.00;4.00;;;;;18.39;55.14;101512.06;5016203;28;9609;-66
2022/06/29 03:30:34;;;;;;;;;3.75;3.75;;;;;18.35;54.89;101507.28;5014101;28;9503;-66
2022/06/29 03:33:00;;;;;;;;;3.50;3.50;;;;;18.26;54.81;101502.13;5036823;28;8889;-66
2022/06/29 03:35:27;;;;;;;;;5.25;5.25;;;;;18.23;55.07;101502.63;5044045;28;9514;-66
2022/06/29 03:37:53;;;;;;;;;3.50;3.50;;;;;18.27;55.25;101501.09;5048386;28;8854;-65
2022/06/29 03:40:20;;;;;;;;;3.75;3.00;;;;;18.27;55.10;101502.97;5024698;28;8849;-66
2022/06/29 03:42:46;;;;;;;;;2.25;2.25;;;;;18.29;55.26;101504.41;5048382;28;9536;-66
2022/06/29 03:45:13;;;;;;;;;3.75;2.75;;;;;18.30;55.46;101494.34;5037315;28;8872;-66
2022/06/29 03:47:39;;;;;;;;;2.00;2.00;;;;;18.30;54.83;101499.78;5012777;28;8821;-66
2022/06/29 03:50:07;;;;;;;;;4.25;4.25;;;;;18.28;54.94;101500.03;5014991;28;8818;-66
2022/06/29 03:52:34;;;;;;;;;3.00;3.00;;;;;18.29;54.76;101493.50;5023090;28;8911;-66
2022/06/29 03:55:01;;;;;;;;;3.50;3.50;;;;;18.29;54.99;101498.13;5037815;28;8857;-66
2022/06/29 03:57:27;;;;;;;;;3.50;3.50;;;;;18.25;55.09;101495.03;5026537;28;8830;-66
2022/06/29 03:59:54;;;;;;;;;3.25;3.00;;;;;18.24;55.25;101496.09;5030143;28;8848;-66
2022/06/29 04:02:20;;;;;;;;;3.25;3.25;;;;;18.24;54.96;101498.00;5022378;28;8815;-66
2022/06/29 04:04:47;;;;;;;;;4.00;2.75;;;;;18.26;55.08;101502.13;5038865;28;8876;-66
2022/06/29 04:07:13;;;;;;;;;3.00;3.00;;;;;18.29;55.17;101498.13;5013375;28;8820;-66
2022/06/29 04:09:40;;;;;;;;;4.25;2.75;;;;;18.37;55.29;101489.63;5012682;28;8841;-65
2022/06/29 04:12:07;;;;;;;;;3.00;3.00;;;;;18.50;54.71;101494.91;5027441;28;8965;-66
2022/06/29 04:14:33;;;;;;;;;4.50;3.50;;;;;18.54;54.50;101489.81;5028993;28;9513;-66
2022/06/29 04:17:00;;;;;;;;;3.75;3.00;;;;;18.54;54.34;101487.94;5040162;28;8910;-65
2022/06/29 04:19:26;;;;;;;;;5.00;4.00;;;;;18.50;54.52;101489.44;5050335;22;9541;-64
2022/06/29 04:21:54;;;;;;;;;3.50;3.50;;;;;18.47;54.58;101487.22;5028728;28;8932;-64
2022/06/29 04:24:22;;;;;;;;;3.50;3.50;;;;;18.46;54.60;101488.25;5031909;28;9497;-64
2022/06/29 04:26:48;;;;;;;;;5.00;3.00;;;;;18.45;54.98;101480.31;5019776;28;8839;-65
2022/06/29 04:29:15;;;;;;;;;3.00;3.00;;;;;18.43;54.95;101483.28;5023529;28;8846;-65
2022/06/29 04:31:41;;;;;;;;;2.00;2.00;;;;;18.43;54.83;101475.09;5003298;28;8833;-65
2022/06/29 04:34:08;;;;;;;;;2.75;2.75;;;;;18.42;55.23;101476.13;5011590;28;8818;-64
2022/06/29 04:36:34;;;;;;;;;4.75;2.00;;;;;18.41;55.20;101476.38;5011604;28;8857;-64
2022/06/29 04:39:01;;;;;;;;;3.00;3.00;;;;;18.40;55.39;101474.72;5001246;28;8845;-64
2022/06/29 04:41:27;;;;;;;;;2.00;2.00;;;;;18.36;55.28;101471.63;5007594;28;8818;-64
2022/06/29 04:43:54;;;;;;;;;3.00;3.00;;;;;18.32;55.19;101467.69;5009690;28;8892;-64
2022/06/29 04:46:20;;;;;;;;;1.00;1.00;;;;;18.35;55.64;101478.16;5008785;28;8849;-64
2022/06/29 04:48:55;;;;;;;;;4.00;3.50;;;;;18.35;55.75;101482.75;4992186;28;8851;-65
2022/06/29 04:51:23;;;;;;;;;4.25;4.25;;;;;18.37;55.59;101477.91;5010900;28;8947;-63
2022/06/29 04:53:53;;;;;;;;;5.75;4.75;;;;;18.39;55.88;101475.75;5002224;28;8876;-65
2022/06/29 04:56:22;;;;;;;;;7.00;5.50;;;;;18.37;55.65;101472.47;5005037;28;8840;-65
2022/06/29 04:58:53;;;;;;;;;4.00;4.00;;;;;18.37;55.31;101462.38;4991886;28;8908;-63
2022/06/29 05:01:27;;;;;;;;;5.50;3.50;;;;;18.40;55.53;101472.84;4999972;28;8957;-64
2022/06/29 05:03:55;;;;;;;;;7.00;6.00;;;;;18.43;55.42;101474.25;5011585;28;8853;-65
2022/06/29 05:06:22;;;;;;;;;6.25;6.25;;;;;18.45;55.46;101464.78;4992202;28;8825;-66
2022/06/29 05:08:50;;;;;;;;;4.75;3.75;;;;;18.46;55.70;101468.34;4995646;28;8829;-65
2022/06/29 05:11:18;;;;;;;;;3.00;3.00;;;;;18.49;55.73;101460.53;5010427;28;8940;-64
2022/06/29 05:13:45;;;;;;;;;6.25;4.50;;;;;18.52;55.70;101454.63;5004477;28;8836;-64
2022/06/29 05:16:13;;;;;;;;;3.25;3.25;;;;;18.55;55.57;101458.75;5007864;28;8838;-64
2022/06/29 05:18:39;;;;;;;;;5.50;5.50;;;;;18.58;55.92;101466.47;5001453;28;8847;-65
2022/06/29 05:21:06;;;;;;;;;3.00;3.00;;;;;18.59;55.44;101462.69;4997547;28;8856;-65
2022/06/29 05:23:33;;;;;;;;;4.50;4.50;;;;;18.58;55.70;101463.75;5002244;28;8845;-65
2022/06/29 05:25:59;;;;;;;;;4.00;4.00;;;;;18.58;55.46;101455.56;5006663;28;8916;-64
2022/06/29 05:28:26;;;;;;;;;5.50;5.50;;;;;18.57;55.35;101459.38;5004687;28;8907;-66
2022/06/29 05:30:53;;;;;;;;;4.00;4.00;;;;;18.57;55.82;101450.38;5000558;28;8837;-66
2022/06/29 05:33:22;;;;;;;;;5.50;5.50;;;;;18.66;55.78;101454.41;4996091;28;8859;-64
2022/06/29 05:35:49;;;;;;;;;9.00;8.25;;;;;18.83;55.63;101457.31;5003770;28;9465;-65
2022/06/29 05:38:15;;;;;;;;;6.75;6.75;;;;;19.03;55.00;101457.84;5010669;28;8878;-65
2022/06/29 05:40:43;;;;;;;;;4.50;3.25;;;;;19.30;54.65;101454.66;5001850;28;8824;-64
2022/06/29 05:43:10;;;;;;;;;9.00;9.00;;;;;19.59;54.00;101450.13;5006484;28;8861;-64
2022/06/29 05:45:37;;;;;;;;;7.00;6.25;;;;;19.80;53.30;101441.34;5005183;28;8844;-65
2022/06/29 05:48:04;;;;;;;;;6.00;5.75;;;;;19.99;52.95;101439.28;4990901;28;8942;-64
2022/06/29 05:50:30;;;;;;;;;3.75;3.75;;;;;20.16;52.55;101440.16;5005823;28;8896;-65
2022/06/29 05:52:56;;;;;;;;;4.00;4.00;;;;;20.31;52.56;101439.63;4990465;28;8873;-65
2022/06/29 05:55:23;;;;;;;;;3.25;3.25;;;;;20.47;52.60;101432.53;5005900;28;8861;-65
2022/06/29 05:57:49;;;;;;;;;4.00;4.00;;;;;20.59;52.33;101425.13;4987125;28;8853;-64
2022/06/29 06:00:16;;;;;;;;;5.75;5.75;;;;;20.69;52.36;101428.03;5007026;28;8826;-66
2022/06/29 06:02:50;;;;;;;;;6.25;6.25;;;;;20.74;51.82;101427.28;4999996;28;8838;-65
2022/06/29 06:05:16;;;;;;;;;9.50;6.50;;;;;20.74;51.30;101433.63;5007969;28;8834;-64
2022/06/29 06:07:43;;;;;;;;;4.25;4.25;;;;;20.72;51.00;101430.28;5010223;28;8880;-65
2022/06/29 06:10:09;;;;;;;;;3.75;3.75;;;;;20.74;50.97;101424.56;5001559;28;8840;-65
2022/06/29 06:12:36;;;;;;;;;6.50;5.75;;;;;20.77;51.47;101425.97;4998457;28;9526;-66
2022/06/29 06:15:03;;;;;;;;;6.25;5.25;;;;;20.77;51.26;101428.72;4997233;28;8820;-65
2022/06/29 06:17:30;;;;;;;;;4.50;4.50;;;;;20.79;51.49;101421.09;5009090;28;8909;-63
2022/06/29 06:20:01;;;;;;;;;5.00;5.00;;;;;20.76;51.25;101421.59;4998950;28;8875;-64
2022/06/29 06:22:28;;;;;;;;;6.25;4.25;;;;;20.72;51.67;101423.97;5007548;28;8842;-65
2022/06/29 06:24:54;;;;;;;;;5.00;5.00;;;;;20.71;51.77;101427.81;5002627;28;8821;-65
2022/06/29 06:27:21;;;;;;;;;7.50;7.00;;;;;20.70;52.06;101428.84;4990476;28;8828;-65
2022/06/29 06:29:48;;;;;;;;;5.75;5.50;;;;;20.62;51.95;101432.84;5002291;28;8918;-65
2022/06/29 06:32:14;;;;;;;;;4.50;4.50;;;;;20.60;52.07;101426.78;5004299;28;8891;-64
2022/06/29 06:34:41;;;;;;;;;6.50;6.50;;;;;20.63;52.34;101428.22;4999885;28;9626;-66
2022/06/29 06:37:07;;;;;;;;;6.50;5.75;;;;;20.68;52.60;101431.84;5011479;28;8861;-64
2022/06/29 06:39:34;;;;;;;;;6.25;4.50;;;;;20.70;52.60;101423.38;5010318;28;9593;-64
2022/06/29 06:42:02;;;;;;;;;7.50;7.00;;;;;20.73;52.62;101429.19;5003790;28;8877;-65
2022/06/29 06:44:28;;;;;;;;;5.00;5.00;;;;;20.73;52.49;101434.66;4999626;28;8906;-65
2022/06/29 06:46:59;;;;;;;;;6.25;5.25;;;;;20.72;52.43;101421.25;5008629;28;8834;-64
2022/06/29 06:49:27;;;;;;;;;6.25;5.00;;;;;20.74;52.05;101425.41;5006939;28;8853;-64
2022/06/29 06:51:53;;;;;;;;;5.00;5.00;;;;;20.74;52.35;101435.50;5012666;28;8848;-65
2022/06/29 06:54:19;;;;;;;;;9.00;6.00;;;;;20.75;52.46;101428.97;5009756;28;8884;-65
2022/06/29 06:56:46;;;;;;;;;5.50;5.50;;;;;20.77;52.39;101421.31;5008723;28;8822;-65
2022/06/29 06:59:12;;;;;;;;;4.50;4.50;;;;;20.81;52.46;101421.66;5009449;28;9608;-65
2022/06/29 07:01:39;;;;;;;;;3.50;3.25;;;;;20.84;52.29;101423.91;5006710;28;8930;-66
2022/06/29 07:04:10;;;;;;;;;5.75;5.00;;;;;20.88;52.31;101425.91;5004075;28;8842;-66
2022/06/29 07:06:37;;;;;;;;;6.25;6.25;;;;;20.90;52.40;101422.91;5004494;28;9724;-64
2022/06/29 07:09:04;;;;;;;;;5.75;5.75;;;;;20.91;52.49;101424.59;4986515;28;9442;-63
2022/06/29 07:11:30;;;;;;;;;5.50;4.75;;;;;20.95;52.07;101425.75;4995678;28;8858;-64
2022/06/29 07:13:57;;;;;;;;;4.00;4.00;;;;;21.02;52.18;101423.63;5004122;28;8915;-65
2022/06/29 07:16:23;;;;;;;;;4.75;4.75;;;;;21.10;52.05;101425.13;4998606;28;8850;-66
2022/06/29 07:18:50;;;;;;;;;3.50;3.00;;;;;21.16;52.16;101414.03;5005939;28;8845;-64
2022/06/29 07:21:19;;;;;;;;;2.50;2.50;;;;;21.21;52.04;101416.00;4998266;28;9563;-65
2022/06/29 07:23:45;;;;;;;;;4.25;4.25;;;;;21.26;51.82;101412.50;5006796;28;8854;-65
2022/06/29 07:26:12;;;;;;;;;3.75;3.75;;;;;21.31;51.97;101418.06;4995087;28;8856;-65
2022/06/29 07:28:39;;;;;;;;;3.75;3.75;;;;;21.36;51.79;101418.19;5009740;28;8825;-66
2022/06/29 07:31:06;;;;;;;;;5.00;4.25;;;;;21.40;51.55;101420.16;5001538;28;8877;-65
2022/06/29 07:33:32;;;;;;;;;6.50;6.50;;;;;21.42;51.79;101417.16;5011624;28;8830;-65
2022/06/29 07:35:59;;;;;;;;;6.25;6.25;;;;;21.45;51.54;101422.13;5006668;28;8935;-65
2022/06/29 07:38:26;;;;;;;;;3.50;3.50;;;;;21.50;51.49;101421.38;5011075;28;8945;-64
2022/06/29 07:40:58;;;;;;;;;3.75;3.75;;;;;21.54;51.67;101419.78;5001110;28;8895;-67
2022/06/29 07:43:26;;;;;;;;;4.00;4.00;;;;;21.57;51.50;101419.28;4993858;28;9576;-65
2022/06/29 07:45:54;;;;;;;;;3.00;3.00;;;;;21.60;51.87;101408.66;5002129;28;8852;-65
2022/06/29 07:48:20;;;;;;;;;3.50;3.50;;;;;21.69;51.70;101409.84;5000923;28;8832;-66
2022/06/29 07:50:47;;;;;;;;;2.75;2.75;;;;;21.77;51.69;101405.03;5001932;28;8900;-66
2022/06/29 07:53:13;;;;;;;;;3.75;3.75;;;;;21.81;51.35;101406.16;5009833;28;9533;-65
2022/06/29 07:55:40;;;;;;;;;3.50;3.50;;;;;21.86;51.07;101403.47;4992805;28;9525;-65
2022/06/29 07:58:07;;;;;;;;;4.50;4.50;;;;;21.88;50.97;101404.06;5009525;28;8921;-65
2022/06/29 08:00:33;;;;;;;;;5.25;5.00;;;;;22.00;51.00;101407.50;5005251;28;8806;-65
2022/06/29 08:03:00;;;;;;;;;4.50;4.00;;;;;22.06;51.47;101417.41;4989179;28;8972;-65
2022/06/29 08:05:27;;;;;;;;;3.00;3.00;;;;;22.12;51.41;101418.28;5011053;28;8849;-66
2022/06/29 08:07:54;;;;;;;;;5.00;5.00;;;;;22.17;51.32;101404.69;5010847;28;8919;-66
2022/06/29 08:10:20;;;;;;;;;4.00;4.00;;;;;22.27;51.08;101409.44;5004959;28;8849;-65
2022/06/29 08:12:47;;;;;;;;;2.75;2.25;;;;;22.34;51.50;101404.59;5003656;28;8900;-66
2022/06/29 08:15:15;;;;;;;;;3.50;3.50;;;;;22.35;51.45;101400.75;5009875;28;8853;-65
2022/06/29 08:17:42;;;;;;;;;7.00;7.00;;;;;22.35;51.46;101415.28;5010818;28;8912;-65
2022/06/29 08:20:10;;;;;;;;;5.25;5.00;;;;;22.38;51.31;101411.22;5010008;28;8964;-65
2022/06/29 08:22:36;;;;;;;;;4.25;4.25;;;;;22.42;51.29;101404.13;5011060;28;8968;-64
2022/06/29 08:25:03;;;;;;;;;4.50;4.50;;;;;22.45;50.73;101414.59;5003290;28;9579;-66
2022/06/29 08:27:31;;;;;;;;;4.00;3.00;;;;;22.42;50.95;101410.44;5010793;28;8841;-65
2022/06/29 08:30:13;;;;;;;;;4.50;4.50;;;;;22.51;51.01;101410.78;4999140;28;8936;-66
2022/06/29 08:32:42;;;;;;;;;7.00;5.00;;;;;22.59;50.32;101409.50;5010784;28;8850;-66
2022/06/29 08:35:09;;;;;;;;;6.00;6.00;;;;;22.65;49.99;101402.97;5000973;28;8864;-65
2022/06/29 08:37:37;;;;;;;;;3.75;3.75;;;;;22.70;50.16;101409.31;5010507;28;8837;-65
2022/06/29 08:40:08;;;;;;;;;5.50;4.00;;;;;22.70;50.02;101398.34;5010045;28;8850;-65
2022/06/29 08:42:38;;;;;;;;;2.75;2.75;;;;;22.76;49.78;101398.38;4993354;28;8845;-65
2022/06/29 08:45:06;;;;;;;;;5.00;4.00;;;;;22.78;49.64;101404.44;5008478;28;8861;-65
2022/06/29 08:47:33;;;;;;;;;4.25;3.00;;;;;22.83;49.46;101401.72;5008824;28;8862;-65
2022/06/29 08:50:05;;;;;;;;;3.00;3.00;;;;;22.93;49.39;101402.69;5008417;28;8850;-66
2022/06/29 08:52:35;;;;;;;;;3.00;2.50;;;;;23.05;49.45;101401.63;4992511;28;8884;-65
2022/06/29 08:55:03;;;;;;;;;2.50;2.50;;;;;23.11;49.40;101397.84;5001842;28;8845;-65
2022/06/29 08:57:30;;;;;;;;;3.00;3.00;;;;;23.10;48.26;101405.25;5010571;28;8968;-65
2022/06/29 08:59:56;;;;;;;;;3.00;3.00;;;;;23.13;47.91;101402.00;5009226;28;8945;-65
2022/06/29 09:02:27;;;;;;;;;4.00;4.00;;;;;23.13;47.78;101404.75;5007517;28;9556;-66
2022/06/29 09:04:54;;;;;;;;;3.75;3.75;;;;;23.13;48.34;101403.88;5006341;28;8832;-65
2022/06/29 09:07:21;;;;;;;;;3.25;3.25;;;;;23.18;48.28;101398.47;5002302;28;8877;-66
2022/06/29 09:10:01;;;;;;;;;4.00;4.00;;;;;23.26;47.57;101397.97;5009015;28;8844;-66
2022/06/29 09:12:29;;;;;;;;;3.75;3.00;;;;;23.35;47.55;101396.34;5008849;28;8836;-66
2022/06/29 09:14:55;;;;;;;;;4.00;4.00;;;;;23.39;46.96;101394.72;5009346;28;8857;-65
2022/06/29 09:17:22;;;;;;;;;4.50;4.50;;;;;23.46;47.14;101397.25;5003871;28;8820;-65
2022/06/29 09:19:49;;;;;;;;;3.00;3.00;;;;;23.51;46.36;101394.50;5007978;28;8842;-66
2022/06/29 09:22:29;;;;;;;;;3.00;3.00;;;;;23.55;45.41;101395.63;4993404;28;8915;-66
2022/06/29 09:24:55;;;;;;;;;3.00;3.00;;;;;23.66;45.51;101400.13;5007069;28;8841;-65
2022/06/29 09:27:43;;;;;;;;;3.00;3.00;;;;;23.81;45.30;101396.59;5005909;28;8834;-66
2022/06/29 09:30:26;;;;;;;;;4.50;4.50;;;;;23.93;44.93;101393.59;4987510;28;8860;-65
2022/06/29 09:33:07;;;;;;;;;3.00;3.00;;;;;24.03;45.44;101379.91;4991836;28;8833;-65
2022/06/29 09:35:36;;;;;;;;;5.00;5.00;;;;;24.08;44.94;101388.16;5008668;28;8908;-66
2022/06/29 09:38:33;;;;;;;;;3.50;3.50;;;;;24.16;43.76;101387.63;5006757;28;9595;-65
2022/06/29 09:41:08;;;;;;;;;3.00;3.00;;;;;24.24;43.95;101377.19;4992105;28;8878;-66
2022/06/29 09:43:37;;;;;;;;;4.25;4.25;;;;;24.26;44.12;101381.31;5008911;28;8822;-66
2022/06/29 09:46:05;;;;;;;;;3.75;3.75;;;;;24.37;44.20;101374.72;5008908;28;8849;-66
2022/06/29 09:48:34;;;;;;;;;4.00;4.00;;;;;24.42;44.30;101379.44;4991527;28;8961;-66
2022/06/29 09:51:01;;;;;;;;;2.50;2.50;;;;;24.46;43.79;101380.53;4990248;28;8927;-65
2022/06/29 09:53:37;;;;;;;;;4.00;4.00;;;;;24.53;43.70;101372.84;5003084;28;8830;-64
2022/06/29 09:56:06;;;;;;;;;2.50;2.50;;;;;24.64;43.81;101370.91;5006683;28;8833;-66
2022/06/29 09:58:41;;;;;;;;;3.75;3.75;;;;;24.73;44.73;101379.44;5007459;28;8849;-65
2022/06/29 10:03:55;;;;;;;;;2.25;2.25;;;;;24.68;42.80;101366.50;5004166;28;8853;-65
2022/06/29 10:06:22;;;;;;;;;2.50;2.50;;;;;24.69;43.32;101376.41;5006897;28;8895;-65
2022/06/29 10:08:50;;;;;;;;;4.50;4.50;;;;;24.74;42.69;101367.31;5005387;28;8838;-64
2022/06/29 10:14:41;;;;;;;;;4.00;4.00;;;;;24.93;42.64;101368.41;5007004;28;8854;-64
2022/06/29 10:17:26;;;;;;;;;2.50;2.50;;;;;25.04;42.36;101358.22;5005040;28;8844;-66
2022/06/29 10:20:30;;;;;;;;;5.00;3.75;;;;;25.04;42.28;101359.03;5005236;28;8845;-65
2022/06/29 10:22:57;;;;;;;;;3.00;3.00;;;;;25.13;41.68;101357.38;5002247;28;8918;-66
2022/06/29 10:25:27;;;;;;;;;3.00;3.00;;;;;25.21;41.51;101358.75;5000544;28;8822;-67
2022/06/29 10:28:16;;;;;;;;;4.75;4.75;;;;;25.29;41.47;101360.09;5008996;28;8822;-66
2022/06/29 10:30:44;;;;;;;;;3.50;3.50;;;;;25.32;40.62;101354.88;4983711;28;8850;-66
2022/06/29 10:33:29;;;;;;;;;4.25;4.25;;;;;25.27;40.64;101356.78;5006708;28;8837;-66
2022/06/29 10:36:09;;;;;;;;;3.00;3.00;;;;;25.18;40.63;101361.22;5002080;28;8826;-66
2022/06/29 10:38:58;;;;;;;;;1.75;1.75;;;;;25.11;40.88;101356.00;5004558;28;9564;-65
2022/06/29 10:44:10;;;;;;;;;3.00;3.00;;;;;25.09;41.11;101345.28;5002523;28;8842;-66
2022/06/29 10:46:56;;;;;;;;;3.50;3.25;;;;;25.21;40.54;101347.72;5004478;28;8806;-67
2022/06/29 10:49:24;;;;;;;;;3.00;3.00;;;;;25.40;39.76;101348.78;5000334;28;8838;-66
2022/06/29 10:51:51;;;;;;;;;3.00;3.00;;;;;25.46;38.94;101343.22;4997912;28;8826;-66
2022/06/29 10:54:25;;;;;;;;;3.00;3.00;;;;;25.50;38.24;101342.38;4992639;28;8864;-67
2022/06/29 10:56:54;;;;;;;;;3.00;3.00;;;;;25.56;37.97;101345.94;5006576;28;8826;-66
2022/06/29 10:59:50;;;;;;;;;2.50;2.50;;;;;25.63;37.47;101327.16;4999984;28;8897;-67
2022/06/29 11:02:17;;;;;;;;;3.00;3.00;;;;;25.58;37.09;101330.75;4985313;28;8880;-66
2022/06/29 11:04:44;;;;;;;;;2.75;2.75;;;;;25.61;37.24;101334.91;4997650;28;9584;-65
2022/06/29 11:13:06;;;;;;;;;5.25;5.25;;;;;25.52;37.89;101326.41;4928710;29;8849;-64
2022/06/29 11:15:48;;;;;;;;;3.00;3.00;;;;;25.55;37.75;101328.56;4976834;28;8944;-67
2022/06/29 11:18:20;;;;;;;;;3.75;3.00;;;;;25.56;38.42;101324.72;4983225;28;8873;-66
2022/06/29 11:20:49;;;;;;;;;4.25;4.25;;;;;25.47;37.92;101331.09;5001381;28;8838;-67
2022/06/29 11:23:18;;;;;;;;;3.00;3.00;;;;;25.45;37.24;101317.59;5001961;28;8880;-67
2022/06/29 11:25:48;;;;;;;;;2.25;2.25;;;;;25.57;37.82;101322.78;5011658;28;8834;-66
2022/06/29 11:28:19;;;;;;;;;3.00;3.00;;;;;25.62;38.50;101317.25;4987504;28;8834;-66
2022/06/29 11:31:06;;;;;;;;;4.00;3.00;;;;;25.56;38.72;101323.88;5007349;28;8907;-67
2022/06/29 11:33:34;;;;;;;;;3.25;3.25;;;;;25.52;38.12;101312.63;5010308;28;9533;-66
2022/06/29 11:36:06;;;;;;;;;1.00;1.00;;;;;25.57;37.80;101314.50;5003936;28;9576;-67
2022/06/29 11:38:38;;;;;;;;;3.25;3.00;;;;;25.73;37.44;101310.56;5011366;28;8897;-66
2022/06/29 11:41:11;;;;;;;;;3.75;3.00;;;;;25.86;37.99;101325.69;5004197;28;8826;-67
2022/06/29 11:44:06;;;;;;;;;2.00;2.00;;;;;25.82;38.11;101319.91;5002485;28;8952;-66
2022/06/29 11:46:37;;;;;;;;;2.75;2.75;;;;;25.84;37.23;101317.69;4999657;28;8912;-66
2022/06/29 11:51:58;;;;;;;;;3.50;3.50;;;;;26.14;38.26;101305.63;5007713;28;8849;-66
2022/06/29 11:54:56;;;;;;;;;5.00;5.00;;;;;26.15;38.36;101314.72;5007127;28;8855;-67
2022/06/29 11:57:23;;;;;;;;;3.00;3.00;;;;;26.16;37.62;101308.09;4983015;28;8850;-66
2022/06/29 11:59:51;;;;;;;;;4.00;2.00;;;;;26.17;37.48;101312.53;5005114;28;9020;-65
2022/06/29 12:02:18;;;;;;;;;4.00;4.00;;;;;26.27;37.23;101317.13;5007970;28;8838;-66